Time;durP1;ratioP1;P1;durP2;ratioP2;P2;SDS_P1;SDS_P2;PMS_P1;PMS_P2;Temp;Humidity;BMP_temperature;BMP_pressure;BME280_temperature;BME280_humidity;BME280_pressure;Samples;Min_cycle;Max_cycle;Signal;HPM_P1;HPM_P2
2024/05/08 05:04:50;;;;;;;3.10;2.80;;;13.90;84.20;;;;;;4491259;25;1897979;-80
2024/05/08 05:07:10;;;;;;;3.80;3.40;;;13.80;84.20;;;;;;4540026;25;20031;-77
2024/05/08 05:09:29;;;;;;;2.95;2.72;;;14.30;84.50;;;;;;4547781;25;20013;-77
2024/05/08 05:11:49;;;;;;;3.65;3.25;;;14.60;84.00;;;;;;4520065;26;20003;-77
2024/05/08 05:14:08;;;;;;;4.18;3.80;;;14.80;83.30;;;;;;4508889;26;20006;-76
2024/05/08 05:16:28;;;;;;;4.93;4.35;;;15.30;82.70;;;;;;4522509;25;20064;-78
2024/05/08 05:18:47;;;;;;;3.97;3.65;;;15.30;81.60;;;;;;4542698;25;20002;-77
2024/05/08 05:21:07;;;;;;;4.13;3.72;;;15.80;81.10;;;;;;4540091;25;20371;-78
2024/05/08 05:23:26;;;;;;;4.43;4.03;;;16.30;80.80;;;;;;4515108;26;20092;-78
2024/05/08 05:25:50;;;;;;;4.75;4.35;;;16.20;80.10;;;;;;4516231;26;20003;-78
2024/05/08 05:28:11;;;;;;;4.25;3.80;;;16.60;80.00;;;;;;4535136;25;20010;-79
2024/05/08 05:30:30;;;;;;;4.50;4.10;;;16.60;79.80;;;;;;4508719;26;20761;-78
2024/05/08 05:35:28;;;;;;;4.78;3.90;;;16.90;79.30;;;;;;4534124;25;20009;-81
2024/05/08 05:37:47;;;;;;;5.07;4.65;;;17.00;78.60;;;;;;4534076;25;20020;-81
2024/05/08 05:40:07;;;;;;;5.10;4.60;;;17.20;77.90;;;;;;4485771;26;20089;-80
2024/05/08 05:47:45;;;;;;;5.35;4.85;;;17.40;76.40;;;;;;4523795;25;20160;-78
2024/05/08 05:50:05;;;;;;;4.53;4.13;;;17.60;76.40;;;;;;4513542;26;20904;-78
2024/05/08 05:52:24;;;;;;;4.68;4.28;;;17.50;76.20;;;;;;4489862;26;20011;-79
2024/05/08 05:54:44;;;;;;;4.63;4.22;;;17.90;76.50;;;;;;4519341;25;20013;-79
2024/05/08 05:57:04;;;;;;;5.00;4.50;;;18.20;76.80;;;;;;4532621;25;20363;-79
2024/05/08 05:59:23;;;;;;;4.72;4.28;;;17.70;76.30;;;;;;4547523;25;20002;-78
2024/05/08 06:01:43;;;;;;;5.47;4.97;;;18.70;76.90;;;;;;4536975;25;20002;-79
2024/05/08 06:04:02;;;;;;;4.20;3.80;;;17.90;76.20;;;;;;4532541;25;19999;-78
2024/05/08 06:06:22;;;;;;;6.22;4.93;;;17.90;76.10;;;;;;4538777;25;20009;-78
2024/05/08 06:08:41;;;;;;;4.60;4.10;;;18.50;76.30;;;;;;4541747;25;20310;-77
2024/05/08 06:11:01;;;;;;;4.68;4.28;;;19.30;76.50;;;;;;4544525;25;20010;-78
2024/05/08 06:13:20;;;;;;;4.35;3.90;;;18.30;75.70;;;;;;4538409;25;20011;-77
2024/05/08 06:15:40;;;;;;;5.07;4.32;;;18.20;75.40;;;;;;4528986;26;20084;-78
2024/05/08 06:18:01;;;;;;;4.82;4.32;;;18.20;75.40;;;;;;4484723;26;20260;-78
2024/05/08 06:20:21;;;;;;;4.75;4.32;;;18.30;75.20;;;;;;4533226;26;20499;-78
2024/05/08 06:22:40;;;;;;;4.70;4.30;;;18.80;75.30;;;;;;4534819;26;20005;-77
2024/05/08 06:25:00;;;;;;;4.90;4.38;;;18.70;75.20;;;;;;4526694;26;20011;-78
2024/05/08 06:27:19;;;;;;;5.97;4.68;;;18.30;74.70;;;;;;4534782;26;20017;-78
2024/05/08 06:29:39;;;;;;;4.82;4.43;;;18.90;75.00;;;;;;4530034;26;20420;-78
2024/05/08 06:31:58;;;;;;;5.18;4.72;;;18.40;74.60;;;;;;4529241;26;20720;-76
2024/05/08 06:34:17;;;;;;;5.00;4.50;;;18.30;74.50;;;;;;4533314;26;20025;-78
2024/05/08 06:36:43;;;;;;;4.30;3.90;;;19.00;75.20;;;;;;4533235;26;20270;-77
2024/05/08 06:39:03;;;;;;;4.55;4.07;;;19.00;75.50;;;;;;4533646;26;20003;-77
2024/05/08 06:41:22;;;;;;;4.53;4.13;;;18.60;75.30;;;;;;4531075;26;20253;-77
2024/05/08 06:43:41;;;;;;;4.63;4.22;;;18.70;75.10;;;;;;4526726;26;20015;-76
2024/05/08 06:46:01;;;;;;;4.28;3.88;;;18.80;74.40;;;;;;4487092;26;20004;-77
2024/05/08 06:48:20;;;;;;;4.18;3.78;;;18.90;74.40;;;;;;4478673;26;20023;-77
2024/05/08 06:50:40;;;;;;;5.03;4.32;;;19.10;74.20;;;;;;4517708;26;20053;-77
2024/05/08 06:52:59;;;;;;;5.85;4.18;;;19.20;73.70;;;;;;4483444;26;20535;-77
2024/05/08 06:55:18;;;;;;;4.22;3.83;;;19.30;73.50;;;;;;4518044;26;20384;-77
2024/05/08 06:57:38;;;;;;;4.35;3.95;;;19.30;73.20;;;;;;4513558;26;20886;-77
2024/05/08 06:59:58;;;;;;;9.18;3.85;;;19.40;73.00;;;;;;4487473;26;20037;-77
2024/05/08 07:02:17;;;;;;;5.75;4.07;;;19.50;72.80;;;;;;4448778;26;20000;-77
2024/05/08 07:04:37;;;;;;;4.05;3.65;;;19.60;72.60;;;;;;4487333;26;20003;-76
2024/05/08 07:06:56;;;;;;;4.45;4.05;;;19.60;72.20;;;;;;4471491;26;19999;-77
2024/05/08 07:09:15;;;;;;;3.83;3.47;;;19.60;71.90;;;;;;4512847;26;20002;-77
2024/05/08 07:11:35;;;;;;;3.67;3.38;;;19.70;71.60;;;;;;4488572;26;20018;-75
2024/05/08 07:13:54;;;;;;;3.60;3.30;;;19.70;71.60;;;;;;4522268;26;20003;-75
2024/05/08 07:16:16;;;;;;;3.55;3.25;;;20.00;71.70;;;;;;4489803;26;20065;-75
2024/05/08 07:18:36;;;;;;;3.55;3.25;;;20.00;71.00;;;;;;4481621;26;20015;-75
2024/05/08 07:20:55;;;;;;;3.45;3.15;;;19.90;71.20;;;;;;4489944;26;20416;-75
2024/05/08 07:23:17;;;;;;;3.67;3.38;;;20.00;71.10;;;;;;4475759;26;20019;-75
2024/05/08 07:25:36;;;;;;;3.28;2.97;;;20.10;70.70;;;;;;4490562;26;19999;-75
2024/05/08 07:27:56;;;;;;;3.65;3.35;;;20.10;70.70;;;;;;4475022;26;20015;-76
2024/05/08 07:30:15;;;;;;;3.97;3.65;;;20.20;70.60;;;;;;4430620;26;20472;-76
2024/05/08 07:32:34;;;;;;;3.30;2.85;;;20.20;70.10;;;;;;4460723;26;20818;-76
2024/05/08 07:34:53;;;;;;;4.10;3.80;;;20.20;69.90;;;;;;4517857;26;19998;-77
2024/05/08 07:37:13;;;;;;;3.60;3.30;;;20.20;69.60;;;;;;4515654;26;20014;-77
2024/05/08 07:39:32;;;;;;;4.05;3.72;;;20.20;69.40;;;;;;4496487;26;20012;-77
2024/05/08 07:41:52;;;;;;;3.88;3.42;;;20.20;69.20;;;;;;4507489;26;20006;-77
2024/05/08 07:44:11;;;;;;;5.20;3.10;;;20.20;69.10;;;;;;4483157;26;19999;-78
2024/05/08 07:46:32;;;;;;;3.78;3.47;;;20.10;69.00;;;;;;4486635;26;20007;-77
2024/05/08 07:48:51;;;;;;;;;;;20.10;68.90;;;;;;4490644;26;20007;-77
2024/05/08 07:51:15;;;;;;;3.67;3.38;;;20.20;67.70;;;;;;4482785;26;19924;-78
2024/05/08 07:53:34;;;;;;;3.40;3.10;;;20.10;68.60;;;;;;4513534;26;20108;-78
2024/05/08 07:55:54;;;;;;;3.72;3.05;;;20.10;69.00;;;;;;4485811;26;20026;-77
2024/05/08 07:58:13;;;;;;;3.58;3.28;;;20.10;69.00;;;;;;4438187;26;20819;-77
2024/05/08 08:00:32;;;;;;;3.50;3.20;;;20.10;69.20;;;;;;4472920;26;20004;-77
2024/05/08 08:02:52;;;;;;;3.58;3.28;;;20.10;69.10;;;;;;4484645;26;20007;-78
2024/05/08 08:05:12;;;;;;;3.25;2.95;;;20.20;68.70;;;;;;4482015;26;20014;-76
2024/05/08 08:07:31;;;;;;;3.58;3.28;;;20.10;68.30;;;;;;4490454;26;20018;-78
2024/05/08 08:09:51;;;;;;;3.78;3.47;;;20.00;67.90;;;;;;4491298;26;20010;-78
2024/05/08 08:12:12;;;;;;;4.18;3.05;;;20.00;67.30;;;;;;4522027;26;20006;-77
2024/05/08 08:14:31;;;;;;;3.50;3.20;;;19.90;67.60;;;;;;4453629;26;20781;-77
2024/05/08 08:16:51;;;;;;;3.45;3.15;;;19.90;68.70;;;;;;4473852;26;20025;-77
2024/05/08 08:19:10;;;;;;;4.90;3.60;;;19.90;67.90;;;;;;4480396;26;20000;-78
2024/05/08 08:21:29;;;;;;;3.58;3.20;;;19.90;67.80;;;;;;4461740;26;20084;-77
2024/05/08 08:23:49;;;;;;;3.60;3.30;;;19.90;68.00;;;;;;4453014;26;20008;-78
2024/05/08 08:26:08;;;;;;;4.10;3.70;;;20.00;68.20;;;;;;4455476;26;20000;-78
2024/05/08 08:28:28;;;;;;;3.90;3.60;;;19.90;68.10;;;;;;4460540;26;19999;-78
2024/05/08 08:30:47;;;;;;;4.10;3.70;;;19.90;68.00;;;;;;4468544;26;20000;-76
2024/05/08 08:33:07;;;;;;;4.13;3.70;;;20.00;68.00;;;;;;4483465;26;20167;-78
2024/05/08 08:35:26;;;;;;;4.38;3.97;;;20.00;68.00;;;;;;4478545;26;20034;-77
2024/05/08 08:37:45;;;;;;;4.40;4.00;;;20.00;67.90;;;;;;4513176;26;20821;-78
2024/05/08 08:40:05;;;;;;;4.00;3.58;;;20.00;67.90;;;;;;4462899;26;20004;-78
2024/05/08 08:42:33;;;;;;;3.92;3.63;;;20.00;67.90;;;;;;4485863;26;20007;-77
2024/05/08 08:44:54;;;;;;;4.38;3.47;;;20.10;67.30;;;;;;4520429;26;20018;-78
2024/05/08 08:47:14;;;;;;;5.25;4.38;;;20.10;67.60;;;;;;4461250;26;20505;-77
2024/05/08 08:49:35;;;;;;;4.75;3.67;;;20.10;67.40;;;;;;4486905;26;20010;-76
2024/05/08 08:51:55;;;;;;;5.88;5.30;;;20.10;67.60;;;;;;4493184;26;20011;-76
2024/05/08 08:54:15;;;;;;;6.10;4.70;;;20.20;67.60;;;;;;4454090;26;20044;-76
2024/05/08 08:56:37;;;;;;;3.90;3.60;;;20.20;67.60;;;;;;4486513;26;19999;-76
2024/05/08 08:59:01;;;;;;;5.03;4.53;;;20.20;67.60;;;;;;4490792;26;20875;-76
2024/05/08 09:01:22;;;;;;;5.55;4.65;;;20.40;67.50;;;;;;4516595;26;20028;-76
2024/05/08 09:03:43;;;;;;;4.95;4.20;;;20.20;67.30;;;;;;4515423;26;20551;-77
2024/05/08 09:06:02;;;;;;;4.70;4.30;;;20.30;67.50;;;;;;4485633;26;20017;-77
2024/05/08 09:08:22;;;;;;;5.40;4.53;;;20.40;67.40;;;;;;4517125;26;20014;-77
2024/05/08 09:10:41;;;;;;;6.97;4.68;;;20.40;67.60;;;;;;4476864;26;20011;-76
2024/05/08 09:13:02;;;;;;;5.07;4.50;;;20.50;67.80;;;;;;4489664;26;20019;-77
2024/05/08 09:15:29;;;;;;;4.78;4.38;;;20.50;67.70;;;;;;4518161;26;20002;-76
2024/05/08 09:17:48;;;;;;;5.55;5.03;;;20.60;66.90;;;;;;4500072;26;20719;-76
2024/05/08 09:20:10;;;;;;;5.88;4.90;;;20.70;67.40;;;;;;4504877;26;20566;-76
2024/05/08 09:22:29;;;;;;;4.43;4.03;;;20.70;67.60;;;;;;4484171;26;20062;-76
2024/05/08 09:24:49;;;;;;;5.22;4.72;;;20.80;67.70;;;;;;4488755;26;20010;-76
2024/05/08 09:27:15;;;;;;;4.97;4.30;;;20.90;67.70;;;;;;4512023;26;20003;-76
2024/05/08 09:29:34;;;;;;;5.03;4.60;;;21.00;67.00;;;;;;4517308;26;20010;-76
2024/05/08 09:31:54;;;;;;;5.15;4.65;;;21.10;67.80;;;;;;4482116;26;20726;-76
2024/05/08 09:34:16;;;;;;;5.15;4.65;;;21.30;67.60;;;;;;4506849;26;20777;-76
2024/05/08 09:36:37;;;;;;;5.50;4.75;;;21.30;67.20;;;;;;4478811;26;19999;-77
2024/05/08 09:38:57;;;;;;;6.57;5.68;;;21.40;67.00;;;;;;4520366;26;20026;-78
2024/05/08 09:41:17;;;;;;;5.45;4.95;;;21.60;66.60;;;;;;4466626;26;20008;-77
2024/05/08 09:43:37;;;;;;;4.10;3.80;;;21.60;67.70;;;;;;4475072;26;20408;-76
2024/05/08 09:45:57;;;;;;;4.70;4.30;;;21.80;66.80;;;;;;4475514;26;20000;-76
2024/05/08 09:48:23;;;;;;;4.75;4.35;;;21.90;66.70;;;;;;4515288;26;20010;-76
2024/05/08 09:50:46;;;;;;;5.30;4.30;;;22.00;65.30;;;;;;4515190;26;20002;-76
2024/05/08 09:53:07;;;;;;;4.93;4.53;;;22.10;65.60;;;;;;4476152;26;19995;-76
2024/05/08 09:55:30;;;;;;;4.63;4.20;;;22.20;65.30;;;;;;4462761;26;20012;-76
2024/05/08 09:57:50;;;;;;;4.32;3.92;;;22.10;64.60;;;;;;4485388;26;20010;-76
2024/05/08 10:00:11;;;;;;;4.22;3.92;;;22.10;64.60;;;;;;4460345;26;20050;-76
2024/05/08 10:02:31;;;;;;;5.03;4.57;;;22.10;64.60;;;;;;4514901;26;19998;-76
2024/05/08 10:04:51;;;;;;;4.07;3.77;;;22.10;64.40;;;;;;4481696;26;20019;-76
2024/05/08 10:07:10;;;;;;;4.40;4.00;;;22.00;64.30;;;;;;4513608;26;20507;-76
2024/05/08 10:09:32;;;;;;;4.75;4.35;;;22.00;64.20;;;;;;4465332;26;20003;-76
2024/05/08 10:11:57;;;;;;;4.30;3.90;;;22.00;64.00;;;;;;4495201;26;19999;-76
2024/05/08 10:14:25;;;;;;;4.75;4.35;;;22.00;63.60;;;;;;4465693;26;20051;-76
2024/05/08 10:16:45;;;;;;;5.28;4.78;;;21.90;63.50;;;;;;4435215;26;20008;-76
2024/05/08 10:19:05;;;;;;;4.53;4.10;;;21.90;63.90;;;;;;4491845;26;20006;-76
2024/05/08 10:21:24;;;;;;;6.13;4.47;;;21.90;64.20;;;;;;4498579;26;19998;-77
2024/05/08 10:23:51;;;;;;;4.60;4.20;;;21.90;64.40;;;;;;4463839;26;20008;-77
2024/05/08 10:26:15;;;;;;;5.13;4.63;;;21.90;63.80;;;;;;4515658;26;20010;-76
2024/05/08 10:28:35;;;;;;;5.07;4.57;;;21.90;64.10;;;;;;4456192;26;20035;-76
2024/05/08 10:30:54;;;;;;;4.85;4.45;;;21.80;64.20;;;;;;4504827;26;20009;-76
2024/05/08 10:33:14;;;;;;;4.68;4.28;;;21.80;64.00;;;;;;4488508;26;20006;-76
2024/05/08 10:35:33;;;;;;;5.35;4.85;;;21.80;63.80;;;;;;4480173;26;20108;-77
2024/05/08 10:37:53;;;;;;;5.00;4.60;;;21.70;63.60;;;;;;4489288;26;20007;-77
2024/05/08 10:40:15;;;;;;;4.55;4.15;;;21.60;63.60;;;;;;4512939;26;20014;-77
2024/05/08 10:42:40;;;;;;;5.35;4.85;;;21.60;63.70;;;;;;4465885;26;19999;-77
2024/05/08 10:45:00;;;;;;;5.22;4.57;;;21.60;63.40;;;;;;4488283;26;20003;-76
2024/05/08 10:47:20;;;;;;;5.32;4.82;;;21.50;63.50;;;;;;4454716;26;21233;-77
2024/05/08 10:49:54;;;;;;;6.45;4.47;;;21.40;63.20;;;;;;4488525;26;20007;-76
2024/05/08 10:52:14;;;;;;;4.65;4.25;;;21.40;62.50;;;;;;4517118;26;20002;-77
2024/05/08 10:54:35;;;;;;;5.25;4.75;;;21.40;63.50;;;;;;4518649;26;19998;-75
2024/05/08 10:56:54;;;;;;;;;;;21.40;63.50;;;;;;4513592;26;20877;-77
2024/05/08 10:59:14;;;;;;;4.35;3.97;;;21.40;62.70;;;;;;4512711;26;19924;-77
2024/05/08 11:01:47;;;;;;;4.78;4.28;;;21.40;63.90;;;;;;4481155;26;20014;-77
2024/05/08 11:04:07;;;;;;;5.10;4.50;;;21.40;63.20;;;;;;4518035;26;20002;-77
2024/05/08 11:06:28;;;;;;;4.32;3.97;;;21.40;63.60;;;;;;4464961;26;20089;-78
2024/05/08 11:08:59;;;;;;;4.50;4.10;;;21.40;63.50;;;;;;4483236;26;19999;-76
2024/05/08 11:11:18;;;;;;;;;;;21.40;62.70;;;;;;4486209;26;20003;-76
2024/05/08 11:13:37;;;;;;;4.00;3.70;;;21.40;62.50;;;;;;4510069;26;19924;-75
2024/05/08 11:15:58;;;;;;;4.45;4.05;;;21.40;63.90;;;;;;4477674;26;20130;-76
2024/05/08 11:18:17;;;;;;;4.32;3.92;;;21.40;64.00;;;;;;4506514;26;20011;-76
2024/05/08 11:20:37;;;;;;;4.07;3.67;;;21.50;64.10;;;;;;4485662;26;20068;-76
2024/05/08 11:22:56;;;;;;;4.45;4.13;;;21.50;64.20;;;;;;4484201;26;20002;-76
2024/05/08 11:25:16;;;;;;;3.97;3.63;;;21.60;64.30;;;;;;4484215;26;20008;-76
2024/05/08 11:27:36;;;;;;;4.75;4.32;;;21.60;64.20;;;;;;4487578;26;20731;-76
2024/05/08 11:29:55;;;;;;;4.95;4.30;;;21.70;63.90;;;;;;4490981;26;21852;-77
2024/05/08 11:32:14;;;;;;;4.28;3.88;;;21.70;63.70;;;;;;4490353;26;20043;-76
2024/05/08 11:34:33;;;;;;;4.45;4.07;;;21.80;63.70;;;;;;4482754;26;20006;-76
2024/05/08 11:36:52;;;;;;;4.15;3.85;;;21.80;63.50;;;;;;4479988;26;20003;-76
2024/05/08 11:39:12;;;;;;;6.03;3.97;;;21.80;63.30;;;;;;4512575;26;20007;-75
2024/05/08 11:41:31;;;;;;;4.40;4.00;;;21.80;63.20;;;;;;4488222;26;20007;-76
2024/05/08 11:43:53;;;;;;;4.10;3.63;;;21.90;63.50;;;;;;4516538;26;20354;-76
2024/05/08 11:46:12;;;;;;;4.68;3.83;;;21.90;63.50;;;;;;4517299;26;20017;-77
2024/05/08 11:48:32;;;;;;;4.25;3.85;;;21.90;63.40;;;;;;4509934;26;20006;-76
2024/05/08 11:50:51;;;;;;;4.07;3.67;;;21.90;63.40;;;;;;4479883;26;20454;-76
2024/05/08 11:53:10;;;;;;;4.22;3.83;;;21.90;63.40;;;;;;4472871;26;20011;-76
2024/05/08 11:55:30;;;;;;;3.88;3.42;;;21.90;63.30;;;;;;4478658;26;20831;-75
2024/05/08 11:57:49;;;;;;;4.13;3.72;;;22.00;63.20;;;;;;4510578;26;20007;-76
2024/05/08 12:00:09;;;;;;;3.83;3.45;;;22.00;63.20;;;;;;4488233;26;20019;-76
2024/05/08 12:02:28;;;;;;;6.03;2.95;;;22.10;63.00;;;;;;4484958;26;20039;-77
2024/05/08 12:04:48;;;;;;;3.78;3.47;;;22.10;62.90;;;;;;4459490;26;20004;-76
2024/05/08 12:07:07;;;;;;;4.05;3.50;;;22.10;62.80;;;;;;4515101;26;20006;-77
2024/05/08 12:09:27;;;;;;;3.28;2.97;;;22.00;62.60;;;;;;4453326;26;20024;-76
2024/05/08 12:11:47;;;;;;;4.80;3.28;;;22.10;62.60;;;;;;4480159;26;20011;-76
2024/05/08 12:14:06;;;;;;;4.07;3.20;;;22.10;62.60;;;;;;4507491;26;20514;-76
2024/05/08 12:16:25;;;;;;;3.50;3.20;;;22.00;62.50;;;;;;4495807;26;20084;-76
2024/05/08 12:18:45;;;;;;;4.13;3.35;;;22.00;62.60;;;;;;4463064;26;20105;-76
2024/05/08 12:21:06;;;;;;;3.55;3.25;;;22.00;62.50;;;;;;4475931;26;20015;-76
2024/05/08 12:23:25;;;;;;;3.22;2.92;;;21.90;62.40;;;;;;4482201;26;20015;-76
2024/05/08 12:25:44;;;;;;;3.28;2.97;;;21.90;62.40;;;;;;4480624;26;20007;-75
2024/05/08 12:28:04;;;;;;;3.25;2.95;;;21.90;62.40;;;;;;4451857;26;19999;-76
2024/05/08 12:30:23;;;;;;;3.20;2.90;;;21.90;62.50;;;;;;4511583;26;20002;-76
2024/05/08 12:32:43;;;;;;;2.90;2.70;;;21.80;62.70;;;;;;4473063;26;20007;-77
2024/05/08 12:35:02;;;;;;;3.15;2.88;;;21.90;63.00;;;;;;4506754;26;20003;-76
2024/05/08 12:37:21;;;;;;;3.40;3.10;;;21.80;63.00;;;;;;4489528;26;20011;-76
2024/05/08 12:39:41;;;;;;;3.15;2.95;;;21.80;62.90;;;;;;4485378;26;20006;-77
2024/05/08 12:42:00;;;;;;;3.20;2.90;;;21.90;62.90;;;;;;4510073;26;20014;-76
2024/05/08 12:44:20;;;;;;;3.28;2.97;;;21.90;63.00;;;;;;4501323;26;20020;-76
2024/05/08 12:46:39;;;;;;;3.25;2.95;;;21.90;62.80;;;;;;4493516;26;20004;-76
2024/05/08 12:49:00;;;;;;;3.20;2.90;;;21.80;62.60;;;;;;4513348;26;20021;-76
2024/05/08 12:51:20;;;;;;;3.45;3.15;;;21.80;62.60;;;;;;4469128;26;20000;-76
2024/05/08 12:53:39;;;;;;;6.55;4.40;;;21.80;62.60;;;;;;4511935;26;21032;-76
2024/05/08 12:55:58;;;;;;;6.50;4.78;;;21.70;62.40;;;;;;4516441;26;20412;-76
2024/05/08 12:58:17;;;;;;;4.07;3.67;;;21.70;62.00;;;;;;4518559;26;20034;-77
2024/05/08 13:00:37;;;;;;;4.47;3.85;;;21.60;61.70;;;;;;4508427;26;20006;-76
2024/05/08 13:02:56;;;;;;;4.07;3.67;;;21.50;61.60;;;;;;4480824;26;20507;-76
2024/05/08 13:05:16;;;;;;;4.78;3.72;;;21.30;61.50;;;;;;4482888;26;20011;-76
2024/05/08 13:07:35;;;;;;;4.10;3.75;;;21.20;61.60;;;;;;4510150;26;20510;-76
2024/05/08 13:09:54;;;;;;;4.25;3.88;;;21.00;61.50;;;;;;4490787;26;20019;-77
2024/05/08 13:12:14;;;;;;;3.97;3.60;;;20.80;61.50;;;;;;4486795;26;20349;-76
2024/05/08 13:14:34;;;;;;;4.22;3.85;;;20.80;61.80;;;;;;4518816;26;20013;-76
2024/05/08 13:16:53;;;;;;;4.53;4.13;;;20.70;61.80;;;;;;4512034;26;20031;-76
2024/05/08 13:19:13;;;;;;;5.03;4.03;;;20.50;61.80;;;;;;4495201;26;20003;-76
2024/05/08 13:21:32;;;;;;;4.90;3.75;;;20.50;62.00;;;;;;4478730;26;20007;-76
2024/05/08 13:23:52;;;;;;;4.25;3.83;;;20.40;62.20;;;;;;4482383;26;20082;-75
2024/05/08 13:26:11;;;;;;;4.00;3.63;;;20.50;62.40;;;;;;4479372;26;20384;-75
2024/05/08 13:28:30;;;;;;;3.65;3.30;;;20.30;62.70;;;;;;4509678;26;19999;-75
2024/05/08 13:30:50;;;;;;;3.28;2.97;;;20.30;63.20;;;;;;4510721;26;19999;-75
2024/05/08 13:33:09;;;;;;;3.47;3.17;;;20.30;63.60;;;;;;4489213;26;20377;-76
2024/05/08 13:35:29;;;;;;;3.13;2.80;;;20.30;63.90;;;;;;4479833;26;20000;-76
2024/05/08 13:37:48;;;;;;;3.50;3.20;;;20.30;64.20;;;;;;4520612;26;20042;-76
2024/05/08 13:40:08;;;;;;;4.32;3.55;;;20.30;64.40;;;;;;4494470;26;20006;-76
2024/05/08 13:42:29;;;;;;;3.33;3.03;;;20.30;64.40;;;;;;4514503;26;20002;-77
2024/05/08 13:44:49;;;;;;;;;;;20.30;64.30;;;;;;4489960;26;20003;-76
2024/05/08 13:47:09;;;;;;;3.70;2.80;;;20.40;64.50;;;;;;4522589;26;19932;-76
2024/05/08 13:49:28;;;;;;;4.65;4.25;;;20.30;64.00;;;;;;4495129;26;20228;-77
2024/05/08 13:51:48;;;;;;;5.47;4.15;;;20.30;63.60;;;;;;4484908;26;20038;-77
2024/05/08 13:54:07;;;;;;;4.85;4.32;;;20.20;63.50;;;;;;4460659;26;20010;-76
2024/05/08 13:56:26;;;;;;;4.10;3.70;;;20.40;63.90;;;;;;4491022;26;19999;-77
2024/05/08 13:58:45;;;;;;;19.50;3.97;;;20.10;64.00;;;;;;4497373;26;20018;-76
2024/05/08 14:01:06;;;;;;;4.25;3.70;;;20.00;64.10;;;;;;4513363;26;20059;-76
2024/05/08 14:03:25;;;;;;;;;;;20.10;64.30;;;;;;4518607;26;20002;-76
2024/05/08 14:05:44;;;;;;;3.80;3.50;;;20.20;64.40;;;;;;4458244;26;19929;-76
2024/05/08 14:08:04;;;;;;;3.50;3.20;;;20.10;64.60;;;;;;4487889;26;20436;-75
2024/05/08 14:10:23;;;;;;;3.63;3.33;;;20.10;64.90;;;;;;4516934;26;20002;-77
2024/05/08 14:12:43;;;;;;;3.42;3.13;;;20.10;65.00;;;;;;4463342;26;20433;-77
2024/05/08 14:15:05;;;;;;;3.70;3.40;;;20.10;65.20;;;;;;4501782;26;20411;-76
2024/05/08 14:17:24;;;;;;;3.58;3.28;;;20.20;65.50;;;;;;4518804;26;20030;-76
2024/05/08 14:19:45;;;;;;;5.93;3.65;;;20.20;65.50;;;;;;4519015;26;20006;-76
2024/05/08 14:22:04;;;;;;;3.83;3.53;;;20.30;65.30;;;;;;4484240;26;20548;-76
2024/05/08 14:24:24;;;;;;;4.28;3.88;;;20.30;65.30;;;;;;4509693;26;20003;-76
2024/05/08 14:26:43;;;;;;;5.30;4.03;;;20.30;65.10;;;;;;4514123;26;20755;-76
2024/05/08 14:29:03;;;;;;;4.40;4.00;;;20.30;64.90;;;;;;4480688;26;20011;-76
2024/05/08 14:31:23;;;;;;;7.57;4.70;;;20.30;64.50;;;;;;4517249;26;20761;-76
2024/05/08 14:33:42;;;;;;;4.68;4.15;;;20.30;64.30;;;;;;4511179;26;20002;-76
2024/05/08 14:36:02;;;;;;;5.10;4.60;;;20.20;64.30;;;;;;4450987;26;20824;-76
2024/05/08 14:38:21;;;;;;;5.65;4.60;;;20.20;64.10;;;;;;4452477;26;20893;-76
2024/05/08 14:40:40;;;;;;;5.20;4.70;;;20.10;64.00;;;;;;4460724;26;20040;-76
2024/05/08 14:43:00;;;;;;;6.05;4.28;;;20.10;64.10;;;;;;4495638;26;20018;-76
2024/05/08 14:45:19;;;;;;;5.32;4.80;;;20.10;64.00;;;;;;4514902;26;20010;-75
2024/05/08 14:47:39;;;;;;;5.45;4.90;;;20.00;64.00;;;;;;4490732;26;20007;-75
2024/05/08 14:49:58;;;;;;;5.47;4.50;;;20.10;64.00;;;;;;4457417;26;20042;-76
2024/05/08 14:52:17;;;;;;;5.88;4.75;;;20.00;63.90;;;;;;4461736;26;20532;-76
2024/05/08 14:54:36;;;;;;;5.55;5.05;;;20.00;64.00;;;;;;4482592;26;20003;-76
2024/05/08 14:56:56;;;;;;;6.53;5.35;;;20.10;64.10;;;;;;4502952;26;20002;-75
2024/05/08 14:59:16;;;;;;;6.88;6.10;;;20.00;64.10;;;;;;4460948;26;20004;-75
2024/05/08 15:01:36;;;;;;;5.15;4.57;;;20.00;64.30;;;;;;4523665;26;20042;-76
2024/05/08 15:03:55;;;;;;;6.85;6.15;;;20.10;64.50;;;;;;4495405;26;20011;-75
2024/05/08 15:06:15;;;;;;;5.90;5.30;;;20.10;64.50;;;;;;4492898;26;20007;-75
2024/05/08 15:08:34;;;;;;;5.25;4.75;;;20.10;64.30;;;;;;4467226;26;20004;-75
2024/05/08 15:10:53;;;;;;;5.32;4.80;;;20.30;64.30;;;;;;4492739;26;20082;-75
2024/05/08 15:13:12;;;;;;;7.25;5.10;;;20.30;64.20;;;;;;4510141;26;20034;-76
2024/05/08 15:15:33;;;;;;;5.43;4.80;;;20.30;64.20;;;;;;4523061;26;20006;-75
2024/05/08 15:17:52;;;;;;;;;;;20.40;64.30;;;;;;4487928;26;20676;-75
2024/05/08 15:20:14;;;;;;;5.38;3.95;;;20.50;63.90;;;;;;4491665;26;21617;-74
2024/05/08 15:22:33;;;;;;;4.75;4.25;;;20.50;64.50;;;;;;4491867;26;20028;-76
2024/05/08 15:24:53;;;;;;;5.05;4.30;;;20.60;64.90;;;;;;4492074;26;20010;-76
2024/05/08 15:27:12;;;;;;;6.45;5.38;;;20.70;64.90;;;;;;4515601;26;20786;-76
2024/05/08 15:29:32;;;;;;;5.47;4.97;;;20.80;64.60;;;;;;4490578;26;20047;-75
2024/05/08 15:31:51;;;;;;;5.68;5.13;;;20.90;64.40;;;;;;4491014;26;20003;-75
2024/05/08 15:34:11;;;;;;;5.93;5.32;;;21.00;64.20;;;;;;4484108;26;20003;-76
2024/05/08 15:36:30;;;;;;;4.88;4.40;;;21.00;63.90;;;;;;4518150;26;20775;-76
2024/05/08 15:38:49;;;;;;;5.07;4.55;;;21.00;63.70;;;;;;4486234;26;20020;-75
2024/05/08 15:41:08;;;;;;;6.72;5.43;;;21.00;63.50;;;;;;4461335;26;19999;-75
2024/05/08 15:43:27;;;;;;;5.55;4.43;;;21.10;63.50;;;;;;4488351;26;20003;-76
2024/05/08 15:45:47;;;;;;;4.97;4.47;;;21.00;63.40;;;;;;4486069;26;20011;-76
2024/05/08 15:48:07;;;;;;;4.85;4.05;;;21.10;63.40;;;;;;4511539;26;20822;-75
2024/05/08 15:50:26;;;;;;;4.90;4.30;;;21.10;63.30;;;;;;4493717;26;20072;-76
2024/05/08 15:52:46;;;;;;;4.20;3.80;;;21.10;63.40;;;;;;4515075;26;20011;-75
2024/05/08 15:55:05;;;;;;;4.50;4.10;;;21.00;63.50;;;;;;4453052;26;20008;-76
2024/05/08 15:57:25;;;;;;;4.65;4.15;;;21.00;63.30;;;;;;4481379;26;20006;-77
2024/05/08 15:59:44;;;;;;;4.50;4.07;;;21.00;63.00;;;;;;4521383;26;20040;-76
2024/05/08 16:02:04;;;;;;;4.60;4.20;;;20.90;62.80;;;;;;4479480;26;20014;-76
2024/05/08 16:04:23;;;;;;;4.35;3.95;;;20.90;63.00;;;;;;4482115;26;20739;-76
2024/05/08 16:06:43;;;;;;;4.70;4.28;;;20.80;63.20;;;;;;4507873;26;20683;-76
2024/05/08 16:09:02;;;;;;;4.72;4.22;;;20.80;63.50;;;;;;4515768;26;20023;-77
2024/05/08 16:11:21;;;;;;;4.25;3.90;;;20.80;63.40;;;;;;4513118;26;20003;-75
2024/05/08 16:13:41;;;;;;;7.60;4.85;;;20.80;63.50;;;;;;4504006;26;20006;-76
2024/05/08 16:16:00;;;;;;;5.30;4.70;;;20.80;63.40;;;;;;4489914;26;20797;-76
2024/05/08 16:18:19;;;;;;;6.55;4.93;;;20.80;63.20;;;;;;4476970;26;20007;-75
2024/05/08 16:20:39;;;;;;;4.70;4.28;;;20.90;63.00;;;;;;4460327;26;20327;-78
2024/05/08 16:22:58;;;;;;;4.80;4.40;;;20.70;62.80;;;;;;4489819;26;20030;-77
2024/05/08 16:25:18;;;;;;;5.50;5.00;;;20.70;63.00;;;;;;4492424;26;20144;-76
2024/05/08 16:27:39;;;;;;;7.07;4.32;;;20.70;63.00;;;;;;4486872;26;20596;-76
2024/05/08 16:29:58;;;;;;;4.55;4.15;;;20.70;63.20;;;;;;4454511;26;20015;-76
2024/05/08 16:32:17;;;;;;;4.57;4.13;;;20.70;63.20;;;;;;4492195;26;20002;-76
2024/05/08 16:34:37;;;;;;;4.38;3.80;;;20.70;63.20;;;;;;4494296;26;20010;-75
2024/05/08 16:36:56;;;;;;;5.22;4.70;;;20.70;63.30;;;;;;4481628;26;19999;-76
2024/05/08 16:39:18;;;;;;;3.83;3.50;;;20.70;63.40;;;;;;4490886;26;20011;-76
2024/05/08 16:41:37;;;;;;;4.32;3.92;;;20.70;63.70;;;;;;4513389;26;20674;-76
2024/05/08 16:43:57;;;;;;;3.78;3.47;;;20.70;63.90;;;;;;4486432;26;20393;-75
2024/05/08 16:46:16;;;;;;;4.35;3.95;;;20.70;63.90;;;;;;4506161;26;19999;-76
2024/05/08 16:48:37;;;;;;;4.10;3.78;;;20.70;63.80;;;;;;4514929;26;20891;-76
2024/05/08 16:50:59;;;;;;;4.50;4.10;;;20.60;63.70;;;;;;4459357;26;20719;-76
2024/05/08 16:53:18;;;;;;;3.83;3.53;;;20.60;63.80;;;;;;4482835;26;20011;-77
2024/05/08 16:55:37;;;;;;;4.07;3.67;;;20.60;63.90;;;;;;4463708;26;20014;-76
2024/05/08 16:57:56;;;;;;;5.75;3.72;;;20.50;63.90;;;;;;4480017;26;20022;-76
2024/05/08 17:00:16;;;;;;;4.45;4.05;;;20.30;63.80;;;;;;4477245;26;20070;-76
2024/05/08 17:02:35;;;;;;;6.63;4.15;;;20.30;64.10;;;;;;4482221;26;20003;-77
2024/05/08 17:04:54;;;;;;;3.95;3.65;;;20.30;64.50;;;;;;4501131;26;20437;-77
2024/05/08 17:07:14;;;;;;;7.80;4.30;;;20.20;64.60;;;;;;4515192;26;20080;-76
2024/05/08 17:09:33;;;;;;;4.22;3.83;;;20.20;64.90;;;;;;4507227;26;20443;-75
2024/05/08 17:11:53;;;;;;;4.18;3.78;;;20.10;65.00;;;;;;4483170;26;20746;-76
2024/05/08 17:14:13;;;;;;;4.30;3.85;;;20.10;65.20;;;;;;4481538;26;20007;-75
2024/05/08 17:16:32;;;;;;;4.50;4.10;;;20.10;65.10;;;;;;4484345;26;20361;-75
2024/05/08 17:18:52;;;;;;;4.75;4.25;;;20.00;65.20;;;;;;4504549;26;20017;-76
2024/05/08 17:21:13;;;;;;;4.57;4.18;;;20.00;65.20;;;;;;4478645;26;20015;-76